Flight Track Log - Related Links

Times and Time Zones

All times are in EDT time to prevent confusion due to time zone crossing. See the ASQ4577 flight status page for this flight to view local times or setup timezone preferences in your user account.

Time Position Orientation Groundspeed Altitude Reporting Facility
EDT Latitude Longitude Course Direction KTS MPH feet Rate Location/Type
Wed 07:07:02 PM 41.4194 -81.8375 73° East 151 174 1,700  Level Cleveland Center
Wed 07:07:45 PM 41.4553 -81.8106 29° Northeast 185 213 3,300 1,545 Climbing Cleveland Center
Wed 07:08:43 PM 41.5097 -81.7672 31° Northeast 229 264 4,300 1,831 Climbing Cleveland Center
Wed 07:09:43 PM 41.5731 -81.7044 37° Northeast 261 300 6,900 2,350 Climbing Cleveland Center
Wed 07:10:00 PM 41.7570 -81.4931 37° Northeast  Level FlightAware Approximate
Wed 07:10:43 PM 41.6361 -81.6389 38° Northeast 282 325 9,000  Level Cleveland Center
Wed 07:11:00 PM 41.8333 -81.3942 90° East  Level FlightAware Approximate
Wed 07:11:43 PM 41.7036 -81.5678 38° Northeast 295 339 11,000  Level Cleveland Center
Wed 07:12:00 PM 41.8507 -81.2469 73° East  Level FlightAware Approximate
Wed 07:12:43 PM 41.7667 -81.4989 39° Northeast 309 356 12,800  Level Cleveland Center
Wed 07:13:43 PM 41.8319 -81.4219 41° Northeast 309 356 14,600 1,200 Climbing Cleveland Center
Wed 07:14:43 PM 41.8597 -81.2886 74° East 327 376 15,200 750 Climbing Cleveland Center
Wed 07:15:43 PM 41.8794 -81.1436 80° East 375 432 16,100 1,350 Climbing Cleveland Center
Wed 07:16:43 PM 41.9008 -81.0100 78° East 373 429 17,900 1,750 Climbing Cleveland Center
Wed 07:17:43 PM 41.9200 -80.8761 79° East 367 422 19,600 1,450 Climbing Cleveland Center
Wed 07:18:43 PM 41.9433 -80.7283 78° East 367 422 20,800 950 Climbing Cleveland Center
Wed 07:19:43 PM 41.9619 -80.5858 80° East 372 428 21,500 600 Climbing Cleveland Center
Wed 07:20:43 PM 41.9869 -80.4267 78° East 405 466 22,000 867 Climbing Cleveland Center
Wed 07:22:00 PM 41.9794 -80.2451 66° East  Level FlightAware Approximate
Wed 07:22:43 PM 42.0319 -80.1022 66° East 441 507 24,100  Level Cleveland Center
Wed 07:23:43 PM 42.0561 -79.9456 78° East 441 507 25,100 950 Climbing Cleveland Center
Wed 07:24:43 PM 42.0781 -79.7831 80° East 436 502 26,000 900 Climbing Cleveland Center
Wed 07:25:43 PM 42.0997 -79.6206 80° East 436 502 26,900 500 Climbing Cleveland Center
Wed 07:26:43 PM 42.1253 -79.4522 78° East 441 507 27,000 50 Climbing Cleveland Center
Wed 07:27:43 PM 42.1486 -79.2753 80° East 453 521 27,000  Level Cleveland Center
Wed 07:28:43 PM 42.1714 -79.0983 80° East 472 543 27,000  Level Cleveland Center
Wed 07:29:43 PM 42.1961 -78.9183 79° East 484 557 27,000  Level Cleveland Center
Wed 07:30:43 PM 42.2206 -78.7494 79° East 501 577 27,000  Level Cleveland Center
Wed 07:31:43 PM 42.2425 -78.5636 81° East 501 577 27,000  Level Cleveland Center
Wed 07:32:43 PM 42.2661 -78.3806 80° East 501 577 27,000  Level Cleveland Center
Wed 07:33:43 PM 42.2894 -78.1944 80° East 501 577 27,000  Level Cleveland Center
Wed 07:34:43 PM 42.3128 -78.0111 80° East 501 577 27,000  Level Cleveland Center
Wed 07:35:43 PM 42.3356 -77.8247 81° East 501 577 27,000  Level Cleveland Center
Wed 07:36:43 PM 42.3581 -77.6383 81° East 501 577 27,000  Level Cleveland Center
Wed 07:39:27 PM 42.4167 -77.1122 81° East 497 572 27,000  Level Boston Center
Wed 07:40:27 PM 42.4389 -76.9253 81° East 505 581 27,000  Level Boston Center
Wed 07:41:27 PM 42.4608 -76.7381 81° East 497 572 27,000  Level Boston Center
Wed 07:42:27 PM 42.4803 -76.5508 82° East 504 580 27,000  Level Boston Center
Wed 07:43:27 PM 42.4989 -76.3775 82° East 510 587 27,000  Level Boston Center
Wed 07:44:27 PM 42.5200 -76.1869 81° East 510 587 27,000  Level Boston Center
Wed 07:45:27 PM 42.5425 -75.9994 81° East 510 587 27,000  Level Boston Center
Wed 07:46:27 PM 42.5589 -75.8089 83° East 510 587 27,000 -700 Level Boston Center
Wed 07:47:27 PM 42.5789 -75.6208 82° East 505 581 25,600 -1,950 Descending Boston Center
Wed 07:48:27 PM 42.5964 -75.4356 83° East 498 573 23,100 -2,500 Descending Boston Center
Wed 07:49:27 PM 42.6156 -75.2586 82° East 490 564 20,600 -2,500 Descending Boston Center
Wed 07:50:27 PM 42.6303 -75.0844 83° East 477 549 18,100 -2,750 Descending Boston Center
Wed 07:51:03 PM 42.6411 -74.9664 83° East 450 518 16,200 -2,500 Descending Boston Center
Wed 07:51:27 PM 42.6464 -74.9214 81° East 454 522 15,600 -2,286 Descending Boston Center
Wed 07:52:27 PM 42.6625 -74.7442 83° East 432 497 13,000 -2,250 Descending Boston Center
Wed 07:53:27 PM 42.6756 -74.6147 82° East 397 457 11,100 -1,000 Descending Boston Center
Wed 07:54:27 PM 42.6847 -74.4625 85° East 368 423 11,000 -240 Descending Boston Center
Wed 07:54:42 PM 42.6831 -74.4314 94° East 347 399 10,800 -1,000 Descending Boston Center
Wed 07:55:27 PM 42.6803 -74.3522 93° East 335 386 10,000 -1,400 Descending Boston Center
Wed 07:55:42 PM 42.6767 -74.3153 98° East 294 338 9,400 -2,100 Descending Boston Center
Wed 07:56:27 PM 42.6758 -74.2333 91° East 305 351 7,900 -2,066 Descending Boston Center
Wed 07:56:43 PM 42.6744 -74.2022 93° East 278 320 7,300 -1,900 Descending Boston Center
Wed 07:57:27 PM 42.6711 -74.1400 94° East 284 327 6,000 -2,164 Descending Boston Center
Wed 07:57:44 PM 42.6697 -74.1006 93° East 267 307 5,100 -2,200 Descending Boston Center
Wed 07:58:27 PM 42.6683 -74.0411 92° East 266 306 3,800 -1,600 Descending Boston Center
Wed 07:58:44 PM 42.6689 -74.0017 89° East 264 304 3,500 -300 Descending Boston Center
Wed 07:59:27 PM 42.6675 -73.9450 92° East 261 300 3,500 -393 Level Boston Center
Wed 07:59:45 PM 42.6661 -73.9083 93° East 245 282 3,100 -1,333 Descending Boston Center

Login

Don't have an account? Register now (free) for customized features, flight alerts, and more!